createdAt,value
2022-12-06T00:12:40.317Z,28.85
2022-12-06T00:27:42.172Z,39.08
2022-12-06T00:42:44.011Z,39.08
2022-12-06T00:57:45.923Z,42.97
2022-12-06T01:12:47.838Z,47.72
2022-12-06T01:27:49.713Z,39.08
2022-12-06T01:42:51.556Z,47.63
2022-12-06T01:57:57.248Z,35.65
2022-12-06T02:12:59.426Z,34.63
2022-12-06T02:28:25.718Z,51.38
2022-12-06T02:43:43.256Z,50.25
2022-12-06T02:58:45.192Z,51.63
2022-12-06T03:13:59.887Z,47.75
2022-12-06T03:29:05.588Z,39.95
2022-12-06T03:44:07.495Z,41.95
2022-12-06T03:59:10.858Z,41.42
2022-12-06T04:14:12.874Z,36.97
2022-12-06T04:29:33.110Z,32.97
2022-12-06T04:44:35.129Z,46.80
2022-12-06T04:59:39.108Z,38.63
2022-12-06T05:14:40.980Z,45.25
2022-12-06T05:29:42.823Z,42.97
2022-12-06T05:44:44.659Z,47.20
2022-12-06T05:59:46.521Z,41.63
2022-12-06T06:14:48.418Z,42.45
2022-12-06T06:29:50.282Z,47.92
2022-12-06T06:44:54.644Z,31.67
2022-12-06T06:59:56.532Z,18.65
2022-12-06T07:14:58.379Z,21.63
2022-12-06T07:30:00.403Z,16.23
2022-12-06T07:45:04.708Z,17.50
2022-12-06T08:00:08.890Z,19.30
2022-12-06T08:15:13.282Z,20.02
2022-12-06T08:30:15.498Z,15.63
2022-12-06T08:45:17.454Z,16.42
2022-12-06T09:00:19.740Z,14.55
2022-12-06T09:15:21.645Z,13.60
2022-12-06T09:30:24.155Z,15.00
2022-12-06T09:46:17.299Z,15.43
2022-12-06T10:01:43.181Z,16.27
2022-12-06T10:16:51.649Z,17.48
2022-12-06T10:31:57.315Z,20.02
2022-12-06T10:47:16.622Z,19.38
2022-12-06T11:02:48.870Z,15.68
2022-12-06T11:18:02.217Z,13.13
2022-12-06T11:33:06.282Z,13.98
2022-12-06T11:48:23.093Z,12.30
2022-12-06T12:03:33.951Z,11.77
2022-12-06T12:18:38.031Z,13.52
2022-12-06T12:33:39.935Z,14.23
2022-12-06T12:48:45.145Z,13.68
2022-12-06T13:03:51.774Z,13.50
2022-12-06T13:18:57.952Z,16.75
2022-12-06T13:34:04.527Z,16.50
2022-12-06T13:49:25.868Z,18.80
2022-12-06T14:19:28.404Z,21.02
2022-12-06T14:34:32.883Z,19.95
2022-12-06T14:49:54.340Z,18.33
2022-12-06T15:04:56.485Z,20.38
2022-12-06T15:19:58.510Z,25.88
2022-12-06T15:35:00.549Z,19.30
2022-12-06T15:50:03.789Z,27.95
2022-12-06T16:05:06.224Z,33.13
2022-12-06T16:20:28.399Z,24.60
2022-12-06T16:35:31.433Z,33.25
2022-12-06T16:50:38.797Z,28.70
2022-12-06T17:05:40.834Z,30.85
2022-12-06T17:20:43.073Z,28.77
2022-12-06T17:35:44.956Z,33.88
2022-12-06T17:50:46.851Z,33.03
2022-12-06T18:05:48.865Z,27.25
2022-12-06T18:20:50.866Z,23.92
2022-12-06T18:35:53.691Z,23.30
2022-12-06T18:50:56.069Z,26.83
2022-12-06T19:06:05.195Z,26.65
2022-12-06T19:21:07.219Z,27.80
2022-12-06T19:36:15.120Z,28.90
2022-12-06T19:51:17.222Z,28.67
2022-12-06T20:06:24.021Z,24.05
2022-12-06T20:21:26.678Z,25.73
2022-12-06T20:36:31.557Z,26.45
2022-12-06T20:51:34.668Z,24.70
2022-12-06T21:06:36.779Z,26.10
2022-12-06T21:21:41.669Z,36.38
2022-12-06T21:36:44.120Z,29.63
2022-12-06T21:51:46.237Z,26.02
2022-12-06T22:06:48.168Z,21.27
2022-12-06T22:21:50.118Z,21.83
2022-12-06T22:36:52.043Z,23.63
2022-12-06T22:51:53.917Z,22.27
2022-12-06T23:06:55.805Z,22.52
2022-12-06T23:21:57.699Z,14.68
2022-12-06T23:36:59.637Z,15.73
2022-12-06T23:52:01.612Z,11.88
